createdAt,value
2023-03-15T00:01:18.516Z,2.63
2023-03-15T00:03:45.490Z,2.65
2023-03-15T00:06:13.153Z,2.60
2023-03-15T00:08:40.198Z,2.57
2023-03-15T00:11:07.220Z,2.54
2023-03-15T00:13:33.807Z,2.52
2023-03-15T00:16:03.428Z,2.49
2023-03-15T00:18:30.439Z,2.52
2023-03-15T00:20:57.120Z,2.54
2023-03-15T00:23:23.655Z,2.53
2023-03-15T00:25:51.638Z,2.59
2023-03-15T00:28:18.312Z,2.52
2023-03-15T00:30:45.383Z,2.49
2023-03-15T00:33:13.898Z,2.49
2023-03-15T00:35:42.794Z,2.48
2023-03-15T00:38:09.957Z,2.49
2023-03-15T00:40:38.160Z,2.49
2023-03-15T00:43:05.018Z,2.47
2023-03-15T00:45:31.569Z,2.40
2023-03-15T00:47:58.009Z,2.45
2023-03-15T00:50:24.682Z,2.38
2023-03-15T00:52:51.213Z,2.35
2023-03-15T00:55:19.716Z,2.30
2023-03-15T00:57:47.013Z,2.32
2023-03-15T01:00:24.533Z,2.26
2023-03-15T01:02:52.957Z,2.23
2023-03-15T01:05:19.621Z,2.24
2023-03-15T01:07:46.106Z,2.22
2023-03-15T01:10:14.004Z,2.18
2023-03-15T01:12:41.202Z,2.15
2023-03-15T01:15:09.208Z,2.13
2023-03-15T01:17:35.694Z,2.09
2023-03-15T01:20:02.413Z,2.04
2023-03-15T01:22:28.916Z,1.99
2023-03-15T01:24:55.583Z,1.99
2023-03-15T01:27:22.053Z,1.97
2023-03-15T01:29:48.580Z,1.96
2023-03-15T01:32:15.131Z,1.96
2023-03-15T01:34:43.234Z,2.03
2023-03-15T01:37:14.412Z,2.09
2023-03-15T01:39:42.330Z,2.15
2023-03-15T01:42:10.050Z,2.21
2023-03-15T01:44:54.934Z,2.34
2023-03-15T01:47:21.856Z,2.44
2023-03-15T01:49:55.693Z,2.45
2023-03-15T01:52:29.066Z,2.44
2023-03-15T01:55:03.832Z,2.54
2023-03-15T01:57:38.083Z,2.55
2023-03-15T02:00:11.845Z,2.57
2023-03-15T02:02:51.859Z,2.52
2023-03-15T02:05:21.871Z,2.47
2023-03-15T02:07:54.631Z,2.49
2023-03-15T02:10:28.913Z,2.48
2023-03-15T02:12:56.242Z,2.46
2023-03-15T02:15:22.781Z,2.44
2023-03-15T02:17:49.550Z,2.44
2023-03-15T02:20:46.267Z,2.45
2023-03-15T02:23:15.757Z,2.45
2023-03-15T02:25:51.252Z,2.43
2023-03-15T02:28:19.733Z,2.39
2023-03-15T02:30:46.864Z,2.39
2023-03-15T02:33:46.935Z,2.33
2023-03-15T02:36:25.749Z,2.35
2023-03-15T02:38:53.234Z,2.35
2023-03-15T02:41:28.872Z,2.35
2023-03-15T02:44:02.111Z,2.33
2023-03-15T02:46:29.296Z,2.35
2023-03-15T02:48:56.286Z,2.33
2023-03-15T02:51:24.972Z,2.30
2023-03-15T02:53:51.476Z,2.25
2023-03-15T02:56:17.984Z,2.20
2023-03-15T02:58:47.853Z,2.24
2023-03-15T03:01:15.879Z,2.25
2023-03-15T03:03:44.216Z,2.26
2023-03-15T03:06:11.949Z,2.27
2023-03-15T03:08:39.021Z,2.26
2023-03-15T03:11:06.522Z,2.29
2023-03-15T03:13:33.243Z,2.31
2023-03-15T03:15:59.777Z,2.32
2023-03-15T03:18:28.687Z,2.28
2023-03-15T03:20:56.860Z,2.31
2023-03-15T03:23:25.872Z,2.35
2023-03-15T03:25:56.976Z,2.38
2023-03-15T03:28:25.808Z,2.42
2023-03-15T03:30:54.577Z,2.43
2023-03-15T03:33:21.618Z,2.38
2023-03-15T03:35:49.780Z,2.39
2023-03-15T03:38:16.424Z,2.39
2023-03-15T03:40:42.923Z,2.47
2023-03-15T03:43:09.495Z,2.47
2023-03-15T03:45:36.108Z,2.45
2023-03-15T03:48:02.627Z,2.42
2023-03-15T03:50:29.218Z,2.41
2023-03-15T03:52:55.740Z,2.40
2023-03-15T03:55:25.148Z,2.40
2023-03-15T03:57:53.094Z,2.35
2023-03-15T04:00:20.569Z,2.37
2023-03-15T04:02:47.299Z,2.36
2023-03-15T04:05:13.904Z,2.33
2023-03-15T04:07:41.413Z,2.37
2023-03-15T04:10:08.742Z,2.31
2023-03-15T04:12:35.260Z,2.30
2023-03-15T04:15:01.766Z,2.22
2023-03-15T04:17:28.174Z,2.17
2023-03-15T04:19:54.690Z,2.17
2023-03-15T04:22:21.129Z,2.19
2023-03-15T04:24:50.641Z,2.14
2023-03-15T04:27:17.162Z,2.18
2023-03-15T04:29:43.891Z,2.15
2023-03-15T04:32:10.948Z,2.14
2023-03-15T04:34:40.067Z,2.12
2023-03-15T04:37:06.771Z,2.10
2023-03-15T04:39:33.245Z,2.08
2023-03-15T04:41:59.958Z,2.07
2023-03-15T04:44:27.066Z,2.04
2023-03-15T04:46:54.974Z,1.97
2023-03-15T04:49:21.913Z,1.96
2023-03-15T04:51:48.393Z,1.85
2023-03-15T04:54:14.832Z,1.80
2023-03-15T04:56:42.145Z,1.80
2023-03-15T04:59:10.637Z,1.74
2023-03-15T05:01:37.600Z,1.73
2023-03-15T05:04:04.215Z,1.73
2023-03-15T05:06:30.952Z,1.76
2023-03-15T05:08:57.414Z,1.75
2023-03-15T05:11:23.967Z,1.74
2023-03-15T05:13:50.543Z,1.77
2023-03-15T05:16:17.535Z,1.80
2023-03-15T05:18:45.228Z,1.78
2023-03-15T05:21:13.234Z,1.75
2023-03-15T05:23:40.154Z,1.77
2023-03-15T05:26:06.720Z,1.75
2023-03-15T05:28:33.259Z,1.75
2023-03-15T05:31:00.767Z,1.72
2023-03-15T05:33:27.316Z,1.69
2023-03-15T05:35:56.023Z,1.77
2023-03-15T05:38:26.476Z,1.77
2023-03-15T05:40:54.650Z,1.74
2023-03-15T05:43:22.101Z,1.75
2023-03-15T05:45:48.864Z,1.73
2023-03-15T05:48:16.750Z,1.74
2023-03-15T05:50:43.340Z,1.73
2023-03-15T05:53:10.516Z,1.80
2023-03-15T05:55:37.181Z,1.82
2023-03-15T05:58:04.032Z,1.76
2023-03-15T06:00:30.749Z,1.74
2023-03-15T06:02:57.244Z,1.74
2023-03-15T06:05:23.742Z,1.78
2023-03-15T06:07:50.272Z,1.79
2023-03-15T06:10:16.870Z,1.74
2023-03-15T06:12:44.688Z,1.69
2023-03-15T06:15:11.887Z,1.82
2023-03-15T06:17:38.381Z,1.83
2023-03-15T06:20:05.195Z,1.78
2023-03-15T06:22:31.807Z,1.74
2023-03-15T06:24:58.284Z,1.70
2023-03-15T06:27:24.784Z,1.64
2023-03-15T06:29:51.299Z,1.64
2023-03-15T06:32:17.755Z,1.62
2023-03-15T06:34:44.286Z,1.63
2023-03-15T06:37:16.363Z,1.59
2023-03-15T06:39:45.056Z,1.61
2023-03-15T06:42:13.653Z,1.60
2023-03-15T06:44:41.257Z,1.65
2023-03-15T06:47:09.142Z,1.69
2023-03-15T06:49:35.836Z,1.78
2023-03-15T06:52:03.256Z,1.88
2023-03-15T06:54:29.796Z,1.98
2023-03-15T06:56:56.807Z,2.09
2023-03-15T06:59:24.099Z,2.11
2023-03-15T07:01:50.799Z,2.29
2023-03-15T07:04:17.339Z,2.37
2023-03-15T07:06:43.879Z,2.43
2023-03-15T07:09:10.603Z,2.47
2023-03-15T07:11:37.054Z,2.56
2023-03-15T07:14:03.606Z,2.68
2023-03-15T07:16:30.142Z,2.76
2023-03-15T07:18:59.280Z,2.80
2023-03-15T07:21:26.801Z,2.83
2023-03-15T07:23:53.404Z,2.88
2023-03-15T07:26:20.371Z,2.91
2023-03-15T07:28:46.948Z,2.90
2023-03-15T07:31:13.908Z,2.96
2023-03-15T07:33:40.674Z,3.08
2023-03-15T07:36:08.397Z,3.22
2023-03-15T07:38:35.908Z,3.33
2023-03-15T07:41:05.342Z,3.42
2023-03-15T07:43:32.338Z,3.57
2023-03-15T07:45:58.913Z,3.69
2023-03-15T07:48:25.377Z,3.80
2023-03-15T07:50:51.981Z,3.69
2023-03-15T07:53:18.478Z,3.73
2023-03-15T07:55:47.852Z,3.86
2023-03-15T07:58:15.056Z,4.04
2023-03-15T08:00:41.771Z,4.17
2023-03-15T08:03:08.378Z,4.25
2023-03-15T08:05:35.474Z,4.25
2023-03-15T08:08:01.994Z,4.42
2023-03-15T08:10:28.541Z,4.55
2023-03-15T08:12:55.043Z,4.72
2023-03-15T08:15:21.628Z,4.85
2023-03-15T08:17:48.860Z,4.97
2023-03-15T08:20:19.758Z,5.04
2023-03-15T08:22:48.650Z,5.20
2023-03-15T08:25:17.862Z,5.21
2023-03-15T08:27:44.453Z,5.20
2023-03-15T08:30:12.750Z,5.40
2023-03-15T08:32:40.536Z,5.61
2023-03-15T08:35:08.014Z,5.74
2023-03-15T08:37:34.585Z,5.87
2023-03-15T08:40:05.321Z,5.99
2023-03-15T08:42:31.793Z,6.17
2023-03-15T08:44:59.583Z,6.19
2023-03-15T08:47:26.258Z,6.23
2023-03-15T08:49:53.216Z,6.25
2023-03-15T08:52:21.448Z,6.24
2023-03-15T08:54:48.619Z,6.35
2023-03-15T08:57:15.512Z,6.40
2023-03-15T08:59:41.978Z,6.49
2023-03-15T09:02:11.375Z,6.70
2023-03-15T09:04:38.888Z,6.63
2023-03-15T09:07:06.072Z,6.69
2023-03-15T09:09:33.622Z,6.67
2023-03-15T09:12:00.116Z,6.65
2023-03-15T09:14:26.535Z,6.72
2023-03-15T09:16:53.059Z,6.88
2023-03-15T09:19:19.526Z,6.97
2023-03-15T09:21:47.154Z,7.04
2023-03-15T09:24:13.944Z,7.07
2023-03-15T09:26:41.074Z,6.98
2023-03-15T09:29:09.499Z,6.98
2023-03-15T09:31:36.018Z,6.97
2023-03-15T09:34:03.148Z,7.18
2023-03-15T09:36:29.782Z,7.32
2023-03-15T09:38:57.105Z,7.46
2023-03-15T09:41:40.176Z,7.59
2023-03-15T09:44:15.187Z,7.54
2023-03-15T09:47:16.740Z,7.63
2023-03-15T09:49:52.314Z,7.75
2023-03-15T09:52:27.515Z,7.52
2023-03-15T09:55:01.006Z,7.61
2023-03-15T09:57:41.184Z,7.67
2023-03-15T10:00:13.752Z,7.65
2023-03-15T10:02:48.650Z,7.74
2023-03-15T10:05:21.267Z,7.77
2023-03-15T10:07:47.832Z,7.62
2023-03-15T10:10:18.759Z,7.61
2023-03-15T10:12:58.747Z,7.81
2023-03-15T10:15:41.889Z,7.70
2023-03-15T10:18:22.272Z,7.74
2023-03-15T10:20:57.797Z,7.91
2023-03-15T10:23:38.988Z,7.94
2023-03-15T10:26:10.047Z,7.95
2023-03-15T10:28:37.731Z,8.04
2023-03-15T10:31:21.594Z,7.96
2023-03-15T10:33:57.083Z,7.87
2023-03-15T10:36:25.387Z,7.82
2023-03-15T10:38:52.423Z,7.85
2023-03-15T10:41:37.762Z,7.73
2023-03-15T10:44:07.423Z,7.82
2023-03-15T10:46:35.563Z,7.89
2023-03-15T10:49:09.733Z,7.90
2023-03-15T10:51:43.505Z,7.90
2023-03-15T10:54:24.156Z,7.95
2023-03-15T10:56:50.728Z,8.00
2023-03-15T10:59:25.729Z,8.02
2023-03-15T11:01:54.691Z,8.06
2023-03-15T11:04:32.463Z,8.09
2023-03-15T11:07:03.114Z,8.14
2023-03-15T11:09:44.733Z,8.21
2023-03-15T11:12:21.731Z,8.04
2023-03-15T11:14:50.936Z,8.10
2023-03-15T11:17:21.508Z,8.07
2023-03-15T11:19:59.933Z,8.10
2023-03-15T11:22:26.769Z,8.23
2023-03-15T11:24:54.782Z,8.36
2023-03-15T11:27:23.273Z,8.49
2023-03-15T11:29:54.373Z,8.58
2023-03-15T11:32:30.589Z,8.53
2023-03-15T11:35:02.382Z,8.47
2023-03-15T11:37:35.541Z,8.65
2023-03-15T11:40:22.316Z,8.55
2023-03-15T11:42:52.136Z,8.82
2023-03-15T11:45:41.635Z,9.06
2023-03-15T11:48:24.947Z,9.35
2023-03-15T11:50:55.481Z,9.35
2023-03-15T11:53:25.781Z,9.24
2023-03-15T11:55:55.447Z,9.11
2023-03-15T11:58:42.416Z,9.20
2023-03-15T12:01:23.926Z,9.22
2023-03-15T12:03:50.763Z,9.14
2023-03-15T12:06:17.157Z,9.19
2023-03-15T12:08:52.268Z,9.27
2023-03-15T12:11:21.718Z,9.24
2023-03-15T12:14:22.809Z,9.15
2023-03-15T12:16:49.361Z,9.17
2023-03-15T12:19:18.629Z,9.17
2023-03-15T12:21:57.719Z,9.23
2023-03-15T12:24:28.440Z,9.21
2023-03-15T12:27:02.842Z,9.36
2023-03-15T12:29:32.443Z,9.47
2023-03-15T12:32:01.756Z,9.47
2023-03-15T12:34:39.847Z,9.54
2023-03-15T12:37:12.910Z,9.81
2023-03-15T12:39:44.831Z,9.68
2023-03-15T12:42:15.127Z,9.64
2023-03-15T12:44:43.299Z,9.79
2023-03-15T12:47:12.306Z,9.70
2023-03-15T12:49:42.707Z,9.71
2023-03-15T12:52:13.480Z,9.93
2023-03-15T12:54:42.960Z,10.18
2023-03-15T12:57:13.157Z,10.37
2023-03-15T12:59:48.230Z,10.28
2023-03-15T13:02:39.624Z,10.29
2023-03-15T13:05:17.402Z,10.28
2023-03-15T13:07:56.743Z,10.44
2023-03-15T13:10:26.290Z,10.45
2023-03-15T13:13:15.595Z,10.62
2023-03-15T13:15:55.489Z,10.61
2023-03-15T13:18:24.351Z,10.37
2023-03-15T13:21:06.669Z,10.31
2023-03-15T13:23:37.305Z,10.47
2023-03-15T13:26:18.791Z,10.48
2023-03-15T13:28:54.406Z,10.68
2023-03-15T13:31:23.939Z,10.74
2023-03-15T13:33:57.442Z,10.86
2023-03-15T13:36:28.477Z,11.17
2023-03-15T13:38:57.444Z,11.18
2023-03-15T13:41:28.533Z,11.17
2023-03-15T13:43:57.654Z,11.54
2023-03-15T13:46:27.424Z,11.85
2023-03-15T13:48:56.201Z,11.81
2023-03-15T13:51:39.500Z,11.86
2023-03-15T13:54:13.835Z,12.02
2023-03-15T13:56:55.672Z,12.34
2023-03-15T13:59:29.951Z,12.65
2023-03-15T14:01:57.185Z,12.91
2023-03-15T14:04:25.873Z,13.11
2023-03-15T14:07:08.632Z,13.37
2023-03-15T14:09:35.285Z,13.50
2023-03-15T14:12:07.226Z,13.47
2023-03-15T14:14:38.664Z,13.71
2023-03-15T14:17:20.691Z,13.67
2023-03-15T14:19:54.398Z,13.91
2023-03-15T14:22:21.308Z,13.70
2023-03-15T14:24:50.159Z,13.88
2023-03-15T14:27:20.194Z,14.04
2023-03-15T14:29:50.624Z,13.90
2023-03-15T14:32:51.708Z,13.38
2023-03-15T14:35:29.309Z,13.59
2023-03-15T14:38:15.940Z,13.88
2023-03-15T14:40:42.568Z,13.61
2023-03-15T14:43:09.889Z,13.32
2023-03-15T14:45:38.996Z,13.17
2023-03-15T14:48:11.084Z,13.11
2023-03-15T14:50:40.904Z,13.17
2023-03-15T14:53:09.053Z,13.20
2023-03-15T14:55:37.839Z,13.12
2023-03-15T14:58:11.900Z,13.10
2023-03-15T15:00:38.409Z,13.12
2023-03-15T15:03:13.134Z,12.77
2023-03-15T15:05:41.549Z,12.49
2023-03-15T15:08:13.828Z,12.32
2023-03-15T15:10:46.290Z,12.24
2023-03-15T15:13:28.098Z,12.30
2023-03-15T15:15:56.857Z,12.31
2023-03-15T15:18:28.832Z,12.50
2023-03-15T15:20:58.309Z,12.49
2023-03-15T15:23:28.447Z,12.53
2023-03-15T15:26:04.591Z,12.18
2023-03-15T15:28:36.938Z,12.16
2023-03-15T15:31:06.145Z,12.02
2023-03-15T15:33:33.951Z,11.78
2023-03-15T15:36:01.085Z,11.72
2023-03-15T15:38:34.737Z,11.78
2023-03-15T15:41:01.440Z,11.69
2023-03-15T15:43:27.905Z,11.57
2023-03-15T15:45:54.511Z,11.72
2023-03-15T15:48:21.102Z,11.95
2023-03-15T15:50:47.613Z,11.87
2023-03-15T15:53:17.407Z,11.72
2023-03-15T15:55:45.963Z,11.63
2023-03-15T15:58:13.824Z,12.01
2023-03-15T16:00:40.495Z,12.05
2023-03-15T16:03:16.167Z,11.95
2023-03-15T16:05:42.991Z,11.91
2023-03-15T16:08:22.484Z,11.85
2023-03-15T16:10:48.979Z,11.83
2023-03-15T16:13:15.574Z,11.73
2023-03-15T16:15:42.185Z,11.73
2023-03-15T16:18:12.784Z,11.67
2023-03-15T16:20:43.179Z,11.64
2023-03-15T16:23:18.932Z,11.56
2023-03-15T16:25:49.154Z,11.45
2023-03-15T16:28:15.680Z,11.62
2023-03-15T16:30:43.109Z,11.54
2023-03-15T16:33:16.605Z,11.35
2023-03-15T16:35:44.176Z,11.18
2023-03-15T16:38:17.361Z,10.98
2023-03-15T16:40:45.630Z,10.90
2023-03-15T16:43:13.785Z,10.78
2023-03-15T16:45:40.905Z,10.75
2023-03-15T16:48:07.625Z,10.67
2023-03-15T16:50:35.063Z,10.58
2023-03-15T16:53:05.424Z,10.44
2023-03-15T16:55:33.018Z,10.37
2023-03-15T16:58:02.611Z,10.24
2023-03-15T17:00:30.973Z,10.21
2023-03-15T17:03:00.049Z,10.04
2023-03-15T17:05:26.801Z,9.97
2023-03-15T17:07:55.133Z,9.79
2023-03-15T17:10:24.795Z,9.74
2023-03-15T17:12:56.304Z,9.64
2023-03-15T17:15:27.879Z,9.56
2023-03-15T17:17:57.553Z,9.38
2023-03-15T17:20:28.868Z,9.36
2023-03-15T17:23:14.107Z,9.35
2023-03-15T17:25:41.401Z,9.19
2023-03-15T17:28:08.283Z,8.96
2023-03-15T17:30:37.203Z,8.83
2023-03-15T17:33:04.950Z,8.70
2023-03-15T17:35:37.903Z,8.62
2023-03-15T17:38:06.513Z,8.52
2023-03-15T17:40:36.144Z,8.45
2023-03-15T17:43:04.167Z,8.40
2023-03-15T17:45:34.542Z,8.27
2023-03-15T17:48:01.852Z,8.19
2023-03-15T17:50:31.023Z,8.21
2023-03-15T17:53:01.763Z,8.17
2023-03-15T17:55:30.939Z,8.11
2023-03-15T17:57:57.668Z,8.10
2023-03-15T18:00:25.179Z,8.04
2023-03-15T18:02:55.993Z,8.01
2023-03-15T18:05:28.134Z,7.98
2023-03-15T18:07:59.176Z,7.94
2023-03-15T18:10:33.542Z,7.88
2023-03-15T18:13:00.636Z,7.82
2023-03-15T18:15:27.765Z,7.83
2023-03-15T18:17:54.738Z,7.82
2023-03-15T18:20:24.062Z,7.83
2023-03-15T18:22:51.925Z,7.78
2023-03-15T18:25:24.614Z,7.66
2023-03-15T18:27:51.904Z,7.61
2023-03-15T18:30:21.213Z,7.60
2023-03-15T18:32:48.104Z,7.60
2023-03-15T18:35:27.544Z,7.58
2023-03-15T18:37:56.034Z,7.56
2023-03-15T18:40:22.985Z,7.52
2023-03-15T18:42:49.899Z,7.50
2023-03-15T18:45:23.076Z,7.48
2023-03-15T18:47:49.922Z,7.47
2023-03-15T18:50:18.087Z,7.40
2023-03-15T18:52:45.409Z,7.42
2023-03-15T18:55:13.668Z,7.45
2023-03-15T18:57:43.346Z,7.42
2023-03-15T19:00:14.231Z,7.38
2023-03-15T19:02:42.751Z,7.32
2023-03-15T19:05:09.748Z,7.30
2023-03-15T19:07:36.314Z,7.37
2023-03-15T19:10:03.078Z,7.40
2023-03-15T19:12:29.617Z,7.34
2023-03-15T19:14:56.135Z,7.36
2023-03-15T19:17:22.734Z,7.30
2023-03-15T19:19:49.252Z,7.30
2023-03-15T19:22:15.810Z,7.32
2023-03-15T19:24:42.404Z,7.31
2023-03-15T19:27:08.950Z,7.30
2023-03-15T19:29:35.535Z,7.29
2023-03-15T19:32:02.306Z,7.28
2023-03-15T19:34:28.761Z,7.23
2023-03-15T19:36:55.204Z,7.23
2023-03-15T19:39:21.712Z,7.20
2023-03-15T19:41:48.773Z,7.17
2023-03-15T19:44:15.418Z,7.15
2023-03-15T19:46:42.248Z,7.12
2023-03-15T19:49:08.991Z,7.13
2023-03-15T19:51:35.642Z,7.12
2023-03-15T19:54:03.100Z,7.10
2023-03-15T19:56:29.589Z,7.08
2023-03-15T19:58:57.079Z,7.04
2023-03-15T20:01:24.049Z,7.03
2023-03-15T20:03:50.884Z,6.98
2023-03-15T20:06:17.428Z,6.95
2023-03-15T20:08:43.984Z,6.89
2023-03-15T20:11:14.845Z,6.87
2023-03-15T20:13:41.318Z,6.86
2023-03-15T20:16:08.287Z,6.86
2023-03-15T20:18:34.803Z,6.85
2023-03-15T20:21:01.292Z,6.82
2023-03-15T20:23:28.515Z,6.82
2023-03-15T20:26:12.112Z,6.86
2023-03-15T20:28:39.510Z,6.83
2023-03-15T20:31:15.535Z,6.81
2023-03-15T20:33:43.353Z,6.79
2023-03-15T20:36:10.036Z,6.74
2023-03-15T20:38:37.371Z,6.71
2023-03-15T20:41:05.454Z,6.73
2023-03-15T20:43:32.973Z,6.63
2023-03-15T20:46:01.870Z,6.64
2023-03-15T20:48:30.277Z,6.65
2023-03-15T20:51:00.258Z,6.66
2023-03-15T20:53:26.700Z,6.61
2023-03-15T20:55:53.166Z,6.57
2023-03-15T20:58:19.996Z,6.56
2023-03-15T21:00:49.891Z,6.53
2023-03-15T21:03:20.920Z,6.56
2023-03-15T21:05:47.890Z,6.59
2023-03-15T21:08:14.758Z,6.60
2023-03-15T21:10:41.638Z,6.55
2023-03-15T21:13:11.521Z,6.54
2023-03-15T21:15:48.404Z,6.56
2023-03-15T21:18:17.332Z,6.55
2023-03-15T21:20:44.822Z,6.55
2023-03-15T21:23:12.333Z,6.63
2023-03-15T21:25:41.893Z,6.67
2023-03-15T21:28:08.844Z,6.68
2023-03-15T21:30:38.728Z,6.70
2023-03-15T21:33:05.700Z,6.72
2023-03-15T21:35:32.645Z,6.76
2023-03-15T21:37:59.589Z,6.73
2023-03-15T21:40:26.363Z,6.78
2023-03-15T21:42:53.095Z,6.88
2023-03-15T21:45:21.657Z,6.95
2023-03-15T21:47:48.709Z,6.88
2023-03-15T21:50:16.241Z,6.89
2023-03-15T21:52:44.780Z,6.94
2023-03-15T21:55:15.445Z,6.90
2023-03-15T21:57:44.376Z,6.82
2023-03-15T22:00:12.131Z,6.85
2023-03-15T22:02:39.313Z,6.87
2023-03-15T22:05:06.222Z,6.94
2023-03-15T22:07:34.038Z,6.91
2023-03-15T22:10:00.563Z,6.81
2023-03-15T22:12:27.060Z,6.78
2023-03-15T22:15:04.772Z,6.82
2023-03-15T22:17:31.968Z,6.81
2023-03-15T22:19:58.441Z,6.86
2023-03-15T22:22:25.180Z,6.86
2023-03-15T22:24:51.607Z,6.84
2023-03-15T22:27:18.197Z,6.79
2023-03-15T22:29:44.668Z,6.76
2023-03-15T22:32:11.192Z,6.69
2023-03-15T22:34:37.685Z,6.64
2023-03-15T22:37:04.220Z,6.58
2023-03-15T22:39:33.998Z,6.58
2023-03-15T22:42:00.457Z,6.59
2023-03-15T22:44:28.899Z,6.51
2023-03-15T22:46:56.568Z,6.48
2023-03-15T22:49:23.808Z,6.38
2023-03-15T22:51:50.530Z,6.43
2023-03-15T22:54:17.075Z,6.42
2023-03-15T22:56:43.993Z,6.43
2023-03-15T22:59:10.443Z,6.39
2023-03-15T23:01:36.964Z,6.43
2023-03-15T23:04:03.676Z,6.38
2023-03-15T23:06:30.284Z,6.36
2023-03-15T23:08:56.754Z,6.24
2023-03-15T23:11:23.212Z,6.29
2023-03-15T23:13:49.699Z,6.29
2023-03-15T23:16:17.282Z,6.35
2023-03-15T23:18:44.134Z,6.37
2023-03-15T23:21:13.203Z,6.33
2023-03-15T23:23:40.878Z,6.41
2023-03-15T23:26:07.339Z,6.38
2023-03-15T23:28:34.008Z,6.44
2023-03-15T23:31:05.614Z,6.41
2023-03-15T23:33:34.088Z,6.47
2023-03-15T23:36:02.357Z,6.47
2023-03-15T23:38:29.094Z,6.56
2023-03-15T23:41:02.056Z,6.52
2023-03-15T23:43:28.527Z,6.53
2023-03-15T23:45:59.748Z,6.54
2023-03-15T23:48:26.652Z,6.55
2023-03-15T23:50:57.664Z,6.59
2023-03-15T23:53:25.637Z,6.55
2023-03-15T23:55:52.646Z,6.60
2023-03-15T23:58:19.818Z,6.59
